Time;durP1;ratioP1;P1;durP2;ratioP2;P2;SDS_P1;SDS_P2;PMS_P1;PMS_P2;Temp;Humidity;BMP_temperature;BMP_pressure;BME280_temperature;BME280_humidity;BME280_pressure;Samples;Min_cycle;Max_cycle;Signal;HPM_P1;HPM_P2
2023/08/13 07:33:53;;;;;;;9.25;3.15;;;;;;;-145.79;78.96;77133.53;5265308;28;20429;-75
2023/08/13 07:36:28;;;;;;;7.57;2.78;;;;;;;-145.79;77.89;77118.69;5259359;28;20025;-74
2023/08/13 07:39:02;;;;;;;6.37;2.53;;;;;;;-145.79;76.93;77114.44;5261332;27;20017;-74
2023/08/13 07:41:33;;;;;;;7.40;2.53;;;;;;;-145.79;76.48;77105.97;5259657;27;20036;-74
2023/08/13 07:44:05;;;;;;;12.32;3.60;;;;;;;-145.79;76.26;77105.97;5264906;28;20489;-74
2023/08/13 07:46:37;;;;;;;8.57;2.90;;;;;;;-145.79;76.12;77097.50;5269405;28;20025;-74
2023/08/13 07:49:08;;;;;;;6.82;2.13;;;;;;;-145.79;75.67;77091.13;5255894;28;20381;-74
2023/08/13 07:51:40;;;;;;;9.20;2.33;;;;;;;-145.79;75.20;77086.91;5264905;28;20112;-74
2023/08/13 07:54:12;;;;;;;9.13;3.40;;;;;;;-145.79;74.95;77078.41;5262097;28;20096;-75
2023/08/13 07:56:43;;;;;;;6.38;2.45;;;;;;;-145.79;74.79;77069.94;5265639;27;20106;-76
2023/08/13 07:59:17;;;;;;;6.97;3.20;;;;;;;-145.79;74.49;77063.59;5264385;28;20076;-75
2023/08/13 08:01:49;;;;;;;10.82;4.07;;;;;;;-145.79;74.46;77055.09;5260047;28;20440;-72
2023/08/13 08:04:21;;;;;;;4.47;2.72;;;;;;;-145.79;74.28;77046.63;5267092;28;20465;-74
2023/08/13 08:06:55;;;;;;;8.75;2.40;;;;;;;-145.79;73.72;77046.63;5262958;27;20041;-75
2023/08/13 08:09:28;;;;;;;7.82;2.95;;;;;;;-145.79;72.64;77042.38;5262475;28;20411;-73
2023/08/13 08:12:01;;;;;;;8.05;2.78;;;;;;;-145.79;72.25;77046.63;5261453;28;20025;-74
2023/08/13 08:14:36;;;;;;;5.63;2.90;;;;;;;-145.79;72.60;77036.03;5258594;27;20045;-75
2023/08/13 08:17:07;;;;;;;7.80;2.33;;;;;;;-145.79;73.28;77029.66;5256185;28;20033;-74
2023/08/13 08:19:39;;;;;;;7.63;2.72;;;;;;;-145.79;72.88;77031.78;5263543;28;20051;-74
2023/08/13 08:22:10;;;;;;;9.35;3.13;;;;;;;-145.79;71.99;77025.44;5259205;27;20037;-75
2023/08/13 08:24:44;;;;;;;8.27;2.67;;;;;;;-145.79;71.26;77023.31;5266129;28;20066;-76
2023/08/13 08:27:16;;;;;;;10.35;2.88;;;;;;;-145.79;72.13;77012.72;5258317;28;20067;-76
2023/08/13 08:29:47;;;;;;;8.23;3.03;;;;;;;-145.79;71.91;77004.25;5252999;28;20025;-76
2023/08/13 08:32:19;;;;;;;6.70;2.63;;;;;;;-145.79;72.03;77000.00;5254565;27;20041;-74
2023/08/13 08:34:51;;;;;;;8.38;2.42;;;;;;;-145.79;71.77;76989.41;5241345;28;20098;-74
2023/08/13 08:37:22;;;;;;;4.75;2.60;;;;;;;-145.79;71.20;76987.28;5238875;28;20418;-74
2023/08/13 08:39:55;;;;;;;6.78;2.65;;;;;;;-145.79;69.34;76978.81;5240039;28;20540;-75
2023/08/13 08:42:26;;;;;;;7.13;2.55;;;;;;;-145.79;69.31;76976.69;5239413;28;20042;-74
2023/08/13 08:44:59;;;;;;;10.38;6.07;;;;;;;-145.79;68.60;76959.72;5239296;28;20034;-75
2023/08/13 08:47:33;;;;;;;6.47;2.47;;;;;;;-145.79;68.32;76955.50;5241333;28;20104;-75
2023/08/13 08:50:04;;;;;;;7.88;3.08;;;;;;;-145.79;68.16;76953.38;5241260;28;20029;-74
2023/08/13 08:52:39;;;;;;;7.35;2.25;;;;;;;-145.79;67.99;76947.00;5236510;28;20021;-75
2023/08/13 08:55:11;;;;;;;9.43;3.10;;;;;;;-145.79;67.18;76940.66;5239895;28;20040;-75
2023/08/13 08:57:43;;;;;;;5.03;2.08;;;;;;;-145.79;67.42;76919.47;5237809;28;20026;-75
2023/08/13 09:00:17;;;;;;;6.75;2.20;;;;;;;-145.79;67.48;76910.97;5239382;28;20473;-75
2023/08/13 09:02:49;;;;;;;6.53;2.40;;;;;;;-145.79;67.53;76891.91;5239274;28;20025;-75
2023/08/13 09:05:21;;;;;;;7.28;2.90;;;;;;;-145.79;66.16;76885.56;5233097;27;20041;-79
2023/08/13 09:07:53;;;;;;;5.65;2.50;;;;;;;-145.79;64.76;76870.72;5242054;28;20029;-79
2023/08/13 09:10:31;;;;;;;6.03;2.42;;;;;;;-145.79;63.64;76870.72;5237704;28;20045;-76
2023/08/13 09:13:02;;;;;;;5.70;2.25;;;;;;;-145.79;63.16;76866.47;5241464;28;20053;-75
2023/08/13 09:15:34;;;;;;;5.60;2.33;;;;;;;-145.79;63.45;76858.00;5235343;28;20033;-76
2023/08/13 09:18:10;;;;;;;6.07;2.03;;;;;;;-145.79;62.92;76860.13;5243801;28;20493;-76
2023/08/13 09:20:48;;;;;;;7.43;2.47;;;;;;;-145.79;62.95;76851.63;5259038;28;20021;-75
2023/08/13 09:23:21;;;;;;;7.95;3.05;;;;;;;-145.79;63.26;76843.16;5252344;28;20037;-76
2023/08/13 09:25:55;;;;;;;5.82;2.13;;;;;;;-145.79;61.33;76847.41;5255467;28;20025;-76
2023/08/13 09:28:27;;;;;;;7.43;2.72;;;;;;;-145.79;61.50;76843.16;5253029;28;20139;-76
2023/08/13 09:31:01;;;;;;;4.63;2.25;;;;;;;-145.79;61.58;76838.94;5246602;28;20099;-76
2023/08/13 09:33:32;;;;;;;9.00;2.75;;;;;;;-145.79;61.72;76828.31;5249784;28;20037;-76
2023/08/13 09:36:05;;;;;;;8.15;2.47;;;;;;;-145.79;61.26;76824.09;5231516;28;20029;-78
2023/08/13 09:38:36;;;;;;;6.45;2.45;;;;;;;-145.79;61.20;76817.72;5239804;28;20026;-75
2023/08/13 09:41:13;;;;;;;6.28;3.03;;;;;;;-145.79;62.04;76796.53;5240168;28;20501;-75
2023/08/13 09:43:47;;;;;;;4.20;2.55;;;;;;;-145.79;61.07;76792.31;5238943;28;20058;-77
2023/08/13 09:46:22;;;;;;;7.50;2.50;;;;;;;-145.79;60.58;76779.59;5238482;28;20074;-75
2023/08/13 09:48:55;;;;;;;8.23;2.80;;;;;;;-145.79;59.73;76771.09;5238908;28;20033;-76
2023/08/13 09:51:31;;;;;;;8.43;2.60;;;;;;;-145.79;58.77;76771.09;5241988;28;20041;-75
2023/08/13 09:54:13;;;;;;;8.52;3.38;;;;;;;-145.79;59.08;76769.00;5256134;28;20041;-75
2023/08/13 09:56:53;;;;;;;5.55;2.75;;;;;;;-145.79;59.54;76762.63;5241929;28;20032;-77
2023/08/13 09:59:28;;;;;;;7.35;2.90;;;;;;;-145.79;59.65;76745.69;5247054;28;20385;-75
2023/08/13 10:01:59;;;;;;;5.13;2.47;;;;;;;-145.79;59.47;76741.44;5245550;28;20032;-76
2023/08/13 10:04:32;;;;;;;4.88;2.53;;;;;;;-145.79;58.37;76747.78;5247661;28;20037;-76
2023/08/13 10:07:07;;;;;;;5.45;2.50;;;;;;;-145.79;58.00;76749.91;5254295;28;20020;-75
2023/08/13 10:09:39;;;;;;;;;;;;;;;-145.79;58.24;76728.72;5243368;28;20025;-75
2023/08/13 10:12:11;;;;;;;9.15;2.95;;;;;;;-145.79;58.32;76743.56;5243803;28;19962;-76
2023/08/13 10:14:42;;;;;;;5.47;2.33;;;;;;;-145.79;59.00;76737.19;5254426;28;20055;-75
2023/08/13 10:17:17;;;;;;;5.97;2.63;;;;;;;-145.79;58.13;76743.56;5248558;28;20030;-76
2023/08/13 10:19:52;;;;;;;6.13;2.83;;;;;;;-145.79;58.01;76735.06;5235360;28;20524;-75
2023/08/13 10:22:37;;;;;;;6.20;2.60;;;;;;;-145.79;58.47;76732.97;5252567;27;20051;-75
2023/08/13 10:25:25;;;;;;;4.40;2.40;;;;;;;-145.79;58.59;76718.13;5239904;28;20029;-75
2023/08/13 10:27:58;;;;;;;6.88;2.65;;;;;;;-145.79;58.18;76720.25;5236241;28;20021;-76
2023/08/13 10:30:30;;;;;;;7.20;3.03;;;;;;;-145.79;58.42;76724.47;5233314;28;20487;-75
2023/08/13 10:33:03;;;;;;;7.47;4.28;;;;;;;-145.79;58.33;76724.47;5238029;28;20085;-75
2023/08/13 10:35:38;;;;;;;7.43;2.90;;;;;;;-145.79;58.40;76711.75;5229668;28;20092;-75
2023/08/13 10:38:10;;;;;;;5.88;2.45;;;;;;;-145.79;59.02;76709.66;5235582;28;20021;-74
2023/08/13 10:41:03;;;;;;;6.07;2.47;;;;;;;-145.79;59.33;76701.16;5238005;28;20082;-74
2023/08/13 10:43:34;;;;;;;9.13;2.92;;;;;;;-145.79;59.02;76699.06;5240237;28;20052;-75
2023/08/13 10:46:06;;;;;;;7.80;3.13;;;;;;;-145.79;58.80;76690.56;5244040;28;20100;-74
2023/08/13 10:48:38;;;;;;;7.32;3.13;;;;;;;-145.79;57.80;76684.22;5239108;28;20153;-74
2023/08/13 10:51:09;;;;;;;8.90;2.63;;;;;;;-145.79;56.35;76669.38;5237997;28;20024;-74
2023/08/13 10:53:42;;;;;;;8.07;2.88;;;;;;;-145.79;56.31;76660.91;5239896;28;20021;-75
2023/08/13 10:56:17;;;;;;;6.57;2.47;;;;;;;-145.79;55.94;76650.31;5238343;28;20032;-74
2023/08/13 10:58:50;;;;;;;6.45;2.17;;;;;;;-145.79;54.28;76650.31;5235720;28;20082;-75
2023/08/13 11:01:24;;;;;;;6.05;2.78;;;;;;;-145.79;54.41;76639.72;5237821;28;20067;-74
2023/08/13 11:03:55;;;;;;;7.93;2.63;;;;;;;-145.79;54.48;76622.75;5234518;28;20032;-75
2023/08/13 11:06:28;;;;;;;6.25;3.08;;;;;;;-145.79;54.89;76610.03;5238540;28;20689;-75
2023/08/13 11:09:07;;;;;;;10.68;2.78;;;;;;;-145.79;54.54;76612.16;5236700;28;20032;-76
2023/08/13 11:11:38;;;;;;;6.47;3.03;;;;;;;-145.79;53.92;76618.53;5235617;28;20039;-76
2023/08/13 11:14:11;;;;;;;12.98;4.72;;;;;;;-145.79;53.95;76590.97;5236543;28;20033;-76
2023/08/13 11:16:43;;;;;;;8.65;4.25;;;;;;;-145.79;54.32;76580.38;5236290;28;20040;-76
2023/08/13 11:19:14;;;;;;;7.82;5.38;;;;;;;-145.79;54.37;76571.91;5234013;28;20021;-76
2023/08/13 11:21:46;;;;;;;9.25;6.50;;;;;;;-145.79;54.54;76542.22;5244656;28;20037;-77
2023/08/13 11:24:17;;;;;;;7.75;3.20;;;;;;;-145.79;52.94;76550.69;5239989;28;20499;-73
2023/08/13 11:26:49;;;;;;;7.90;3.30;;;;;;;-145.79;52.57;76538.00;5232537;28;20059;-77
2023/08/13 11:29:21;;;;;;;7.38;2.67;;;;;;;-145.79;52.65;76559.19;5236328;28;20035;-76
2023/08/13 11:31:52;;;;;;;7.13;2.67;;;;;;;-145.79;52.35;76542.22;5238540;28;20033;-75
2023/08/13 11:34:24;;;;;;;5.57;2.75;;;;;;;-145.79;52.03;76538.00;5239390;28;20507;-76
2023/08/13 11:36:56;;;;;;;7.07;2.80;;;;;;;-145.79;52.34;76527.38;5238836;28;20022;-76
2023/08/13 11:39:28;;;;;;;6.35;2.47;;;;;;;-145.79;51.85;76527.38;5236785;28;20499;-76
2023/08/13 11:42:09;;;;;;;7.68;3.08;;;;;;;-145.79;51.56;76516.78;5237899;28;20026;-76
2023/08/13 11:44:43;;;;;;;8.27;2.45;;;;;;;-145.79;52.00;76538.00;5235944;28;20026;-75
2023/08/13 11:47:30;;;;;;;5.10;2.47;;;;;;;-145.79;52.58;76516.78;5235900;28;20014;-75
2023/08/13 11:50:01;;;;;;;6.82;2.92;;;;;;;-145.79;51.88;76499.84;5243746;28;20028;-75
2023/08/13 11:52:32;;;;;;;4.65;3.03;;;;;;;-145.79;51.28;76504.09;5249041;28;20651;-75
2023/08/13 11:55:04;;;;;;;6.60;3.00;;;;;;;-145.79;51.03;76501.97;5248159;28;20066;-76
2023/08/13 11:57:38;;;;;;;7.38;2.60;;;;;;;-145.79;51.22;76506.19;5257101;28;20494;-76
2023/08/13 12:00:10;;;;;;;8.50;2.78;;;;;;;-145.79;51.66;76489.25;5241043;28;20387;-76
2023/08/13 12:02:42;;;;;;;8.25;2.83;;;;;;;-145.79;51.19;76485.00;5237941;28;20035;-75
2023/08/13 12:05:14;;;;;;;5.00;2.40;;;;;;;-145.79;51.34;76472.28;5240098;28;20029;-76
2023/08/13 12:07:45;;;;;;;7.13;2.63;;;;;;;-145.79;51.54;76461.69;5234825;28;20029;-76
2023/08/13 12:10:17;;;;;;;6.45;2.90;;;;;;;-145.79;51.66;76465.94;5227216;28;20544;-76
2023/08/13 12:12:48;;;;;;;5.60;2.40;;;;;;;-145.79;50.84;76470.19;5248012;28;20021;-76
2023/08/13 12:15:23;;;;;;;5.63;2.45;;;;;;;-145.79;50.64;76476.53;5244310;28;20028;-76
2023/08/13 12:17:56;;;;;;;5.55;2.75;;;;;;;-145.79;50.76;76470.19;5248542;28;20029;-75
2023/08/13 12:20:28;;;;;;;6.70;2.42;;;;;;;-145.79;51.68;76472.28;5242605;28;20445;-75
2023/08/13 12:22:59;;;;;;;7.18;2.60;;;;;;;-145.79;50.74;76482.88;5263888;28;20029;-76
2023/08/13 12:25:31;;;;;;;9.52;3.08;;;;;;;-145.79;51.70;76482.88;5256282;28;20495;-75
2023/08/13 12:28:04;;;;;;;24.00;21.55;;;;;;;-145.79;51.92;76470.19;5257128;28;20028;-75
2023/08/13 12:30:36;;;;;;;7.47;2.53;;;;;;;-145.79;51.49;76476.53;5238521;28;20040;-76
2023/08/13 12:33:07;;;;;;;8.07;2.75;;;;;;;-145.79;51.52;76457.47;5250550;28;20412;-75
2023/08/13 12:35:38;;;;;;;5.63;2.90;;;;;;;-145.79;51.50;76444.75;5257462;28;20036;-76
2023/08/13 12:38:10;;;;;;;8.38;3.42;;;;;;;-145.79;51.48;76442.63;5239572;28;20472;-74
2023/08/13 12:40:41;;;;;;;6.72;3.38;;;;;;;-145.79;52.01;76432.03;5246862;28;20037;-74
2023/08/13 12:43:12;;;;;;;12.85;9.15;;;;;;;-145.79;51.42;76436.28;5251119;28;20437;-75
2023/08/13 12:45:44;;;;;;;5.43;2.47;;;;;;;-145.79;52.21;76434.16;5248685;28;20434;-75
2023/08/13 12:48:15;;;;;;;6.90;3.10;;;;;;;-145.79;51.62;76432.03;5255353;28;20059;-74
2023/08/13 12:50:49;;;;;;;5.78;2.50;;;;;;;-145.79;51.78;76427.78;5242636;28;20472;-75
2023/08/13 12:53:21;;;;;;;7.90;2.30;;;;;;;-145.79;51.15;76440.50;5257272;28;20519;-74
2023/08/13 12:55:52;;;;;;;10.60;3.17;;;;;;;-145.79;52.07;76444.75;5240750;28;20014;-74
2023/08/13 12:58:23;;;;;;;8.65;3.55;;;;;;;-145.79;51.44;76434.16;5242032;28;20036;-73
2023/08/13 13:00:58;;;;;;;7.22;2.60;;;;;;;-145.79;51.46;76434.16;5261068;28;20017;-73
2023/08/13 13:03:29;;;;;;;5.32;2.65;;;;;;;-145.79;51.75;76442.63;5239447;28;20032;-74
2023/08/13 13:06:00;;;;;;;8.18;3.50;;;;;;;-145.79;50.65;76459.56;5246344;28;20030;-74
2023/08/13 13:08:32;;;;;;;5.72;1.98;;;;;;;-145.79;51.50;76446.88;5241387;28;20111;-74
2023/08/13 13:11:03;;;;;;;9.38;4.00;;;;;;;-145.79;51.38;76444.75;5242569;28;20134;-74
2023/08/13 13:13:37;;;;;;;7.07;2.92;;;;;;;-145.79;51.99;76438.38;5251486;28;20033;-74
2023/08/13 13:16:10;;;;;;;4.97;2.88;;;;;;;-145.79;52.06;76459.56;5255484;28;20465;-72
2023/08/13 13:18:41;;;;;;;5.13;2.53;;;;;;;-145.79;52.57;76402.38;5251793;28;20117;-74
2023/08/13 13:21:13;;;;;;;4.35;2.40;;;;;;;-145.79;52.10;76359.97;5254497;28;20064;-73
2023/08/13 13:23:44;;;;;;;7.30;2.85;;;;;;;-145.79;50.94;76362.09;5246982;28;20075;-74
2023/08/13 13:26:16;;;;;;;4.70;2.03;;;;;;;-145.79;51.37;76385.41;5257892;28;20060;-73
2023/08/13 13:28:47;;;;;;;5.45;2.70;;;;;;;-145.79;51.44;76400.25;5268124;28;20051;-74
2023/08/13 13:31:18;;;;;;;8.50;2.95;;;;;;;-145.79;50.38;76406.59;5257899;28;20064;-75
2023/08/13 13:33:50;;;;;;;8.10;3.65;;;;;;;-145.79;52.10;76408.72;5253275;28;20044;-74
2023/08/13 13:36:22;;;;;;;5.25;2.72;;;;;;;-145.79;52.01;76406.59;5247155;28;20034;-74
2023/08/13 13:38:56;;;;;;;98.97;88.32;;;;;;;-145.79;51.01;76381.16;5254974;28;20021;-75
2023/08/13 13:41:27;;;;;;;5.35;2.80;;;;;;;-145.79;50.46;76338.78;5259859;28;20025;-75
2023/08/13 13:43:58;;;;;;;6.28;2.90;;;;;;;-145.79;49.71;76315.47;5257423;28;20529;-74
2023/08/13 13:46:30;;;;;;;5.47;2.97;;;;;;;-145.79;48.97;76307.00;5251977;28;20036;-74
2023/08/13 13:49:01;;;;;;;10.98;3.40;;;;;;;-145.79;48.98;76340.91;5255287;28;20029;-75
2023/08/13 13:51:33;;;;;;;5.05;2.30;;;;;;;-145.79;50.17;76353.63;5242416;28;20063;-74
2023/08/13 13:54:06;;;;;;;5.15;2.33;;;;;;;-145.79;49.08;76368.47;5223329;28;20037;-75
2023/08/13 13:56:37;;;;;;;5.30;2.38;;;;;;;-145.79;50.07;76381.16;5242764;28;20037;-74
2023/08/13 13:59:09;;;;;;;6.18;2.47;;;;;;;-145.79;49.79;76387.53;5235745;28;20025;-74
2023/08/13 14:01:40;;;;;;;6.32;2.50;;;;;;;-145.79;49.65;76396.00;5234221;28;20342;-75
2023/08/13 14:04:12;;;;;;;5.57;2.85;;;;;;;-145.79;50.23;76402.38;5241882;28;20037;-74
2023/08/13 14:06:43;;;;;;;5.10;2.38;;;;;;;-145.79;49.57;76406.59;5247805;28;20025;-75
2023/08/13 14:09:15;;;;;;;7.07;2.80;;;;;;;-145.79;50.06;76406.59;5265438;28;20033;-74
2023/08/13 14:11:47;;;;;;;6.07;2.75;;;;;;;-145.79;50.33;76415.06;5263513;28;20127;-74
2023/08/13 14:14:19;;;;;;;6.28;2.60;;;;;;;-145.79;51.24;76408.72;5244030;28;20108;-74
2023/08/13 14:16:51;;;;;;;6.57;2.63;;;;;;;-145.79;51.85;76410.84;5245588;28;20029;-74
2023/08/13 14:19:22;;;;;;;6.00;2.85;;;;;;;-145.79;51.90;76406.59;5238953;28;20516;-74
2023/08/13 14:21:54;;;;;;;6.57;2.88;;;;;;;-145.79;51.30;76415.06;5238740;28;20569;-73
2023/08/13 14:24:25;;;;;;;6.57;2.78;;;;;;;-145.79;51.33;76400.25;5237527;28;20034;-73
2023/08/13 14:26:58;;;;;;;6.90;3.78;;;;;;;-145.79;51.36;76406.59;5249509;28;20392;-73
2023/08/13 14:29:29;;;;;;;5.25;2.45;;;;;;;-145.79;51.90;76389.66;5250016;28;20537;-74
2023/08/13 14:32:01;;;;;;;9.27;2.53;;;;;;;-145.79;50.42;76347.25;5236514;28;20050;-74
2023/08/13 14:34:32;;;;;;;7.35;3.85;;;;;;;-145.79;50.05;76317.59;5246688;28;20021;-76
2023/08/13 14:37:05;;;;;;;8.35;2.78;;;;;;;-145.79;48.95;76336.66;5257696;28;20021;-75
2023/08/13 14:39:36;;;;;;;6.25;2.80;;;;;;;-145.79;49.22;76343.03;5259094;28;20025;-75
2023/08/13 14:42:08;;;;;;;4.75;2.95;;;;;;;-145.79;49.62;76334.56;5257658;28;20100;-75
2023/08/13 14:44:41;;;;;;;8.80;2.47;;;;;;;-145.79;49.90;76345.16;5248540;28;20030;-75
2023/08/13 14:47:13;;;;;;;9.35;3.00;;;;;;;-145.79;49.54;76347.25;5236200;28;20048;-75
2023/08/13 14:49:46;;;;;;;7.53;2.80;;;;;;;-145.79;49.17;76353.63;5235760;28;20021;-76
2023/08/13 14:52:17;;;;;;;4.65;2.42;;;;;;;-145.79;49.10;76351.50;5236564;28;20033;-75
2023/08/13 14:54:49;;;;;;;14.98;13.13;;;;;;;-145.79;48.76;76334.56;5240104;28;20021;-74
2023/08/13 14:57:20;;;;;;;5.82;2.80;;;;;;;-145.79;49.09;76304.88;5239987;28;20114;-75
2023/08/13 14:59:51;;;;;;;5.15;2.63;;;;;;;-145.79;48.90;76296.41;5241766;28;20440;-77
2023/08/13 15:02:23;;;;;;;5.18;2.33;;;;;;;-145.79;48.98;76296.41;5243098;28;20022;-76
2023/08/13 15:04:54;;;;;;;5.40;2.40;;;;;;;-145.79;49.10;76317.59;5237849;28;20026;-74
2023/08/13 15:07:31;;;;;;;7.43;2.38;;;;;;;-145.79;48.90;76330.31;5244273;28;20036;-76
2023/08/13 15:10:03;;;;;;;4.70;2.35;;;;;;;-145.79;49.48;76353.63;5246530;28;20022;-75
2023/08/13 15:12:34;;;;;;;8.05;3.00;;;;;;;-145.79;54.37;76387.53;5240488;28;20174;-75
2023/08/13 15:15:06;;;;;;;7.72;3.13;;;;;;;-145.79;57.02;76412.97;5238949;28;20524;-75
2023/08/13 15:17:39;;;;;;;5.18;2.90;;;;;;;-145.79;58.68;76457.47;5237955;28;20034;-76
2023/08/13 15:20:10;;;;;;;11.20;3.92;;;;;;;-145.79;59.71;76474.41;5238398;28;20021;-75
2023/08/13 15:22:42;;;;;;;6.53;2.50;;;;;;;-145.79;60.66;76474.41;5238329;28;20389;-77
2023/08/13 15:25:15;;;;;;;5.47;2.90;;;;;;;-145.79;61.47;76521.03;5237934;28;20033;-75
2023/08/13 15:27:47;;;;;;;15.80;11.73;;;;;;;-145.79;62.02;76504.09;5238040;28;20022;-77
2023/08/13 15:30:18;;;;;;;8.75;3.00;;;;;;;-145.79;62.02;76487.13;5238155;28;20386;-75
2023/08/13 15:32:51;;;;;;;5.60;2.47;;;;;;;-145.79;60.62;76463.81;5237315;28;20049;-76
2023/08/13 15:35:24;;;;;;;5.32;2.70;;;;;;;-145.79;60.20;76453.22;5238025;28;20380;-76
2023/08/13 15:37:55;;;;;;;7.93;2.92;;;;;;;-145.79;59.65;76444.75;5236327;28;20032;-75
2023/08/13 15:40:27;;;;;;;4.82;2.80;;;;;;;-145.79;59.20;76429.91;5248032;28;20029;-75
2023/08/13 15:42:58;;;;;;;4.30;2.42;;;;;;;-145.79;59.61;76423.56;5239649;28;20051;-75
2023/08/13 15:45:30;;;;;;;5.53;2.58;;;;;;;-145.79;58.07;76436.28;5241278;28;20030;-75
2023/08/13 15:48:01;;;;;;;6.03;2.80;;;;;;;-145.79;58.43;76444.75;5240842;28;20024;-76
2023/08/13 15:50:33;;;;;;;4.75;2.30;;;;;;;-145.79;58.40;76455.34;5241488;28;20060;-75
2023/08/13 15:53:05;;;;;;;6.82;2.90;;;;;;;-145.79;58.31;76440.50;5250720;28;20544;-75
2023/08/13 15:55:38;;;;;;;4.85;2.40;;;;;;;-145.79;58.65;76442.63;5260133;28;20108;-76
2023/08/13 15:58:10;;;;;;;5.15;2.55;;;;;;;-145.79;59.14;76417.19;5244875;28;20029;-75
2023/08/13 16:00:41;;;;;;;6.07;2.85;;;;;;;-145.79;57.55;76417.19;5240891;28;20045;-73
2023/08/13 16:03:12;;;;;;;6.50;2.80;;;;;;;-145.79;57.33;76412.97;5239983;28;20080;-74
2023/08/13 16:05:44;;;;;;;5.68;3.67;;;;;;;-145.79;56.97;76396.00;5227769;28;20358;-74
2023/08/13 16:08:15;;;;;;;4.75;2.38;;;;;;;-145.79;55.61;76398.13;5220205;28;20427;-74
2023/08/13 16:10:57;;;;;;;5.45;3.25;;;;;;;-145.79;56.13;76393.88;5230530;28;20033;-74
2023/08/13 16:13:37;;;;;;;4.78;2.55;;;;;;;-145.79;57.30;76376.94;5257482;28;20225;-74
2023/08/13 16:16:08;;;;;;;4.30;2.65;;;;;;;-145.79;55.81;76376.94;5240489;28;20022;-75
2023/08/13 16:18:40;;;;;;;7.20;2.95;;;;;;;-145.79;55.55;76381.16;5244758;28;20024;-74
2023/08/13 16:21:11;;;;;;;4.43;2.30;;;;;;;-145.79;55.65;76415.06;5252793;28;20033;-74
2023/08/13 16:23:43;;;;;;;5.60;2.30;;;;;;;-145.79;55.79;76391.78;5261988;28;20053;-74
2023/08/13 16:26:16;;;;;;;7.57;2.65;;;;;;;-145.79;55.77;76406.59;5254178;28;20025;-74
2023/08/13 16:28:48;;;;;;;4.53;2.22;;;;;;;-145.79;56.30;76419.31;5251037;28;20021;-73
2023/08/13 16:31:19;;;;;;;4.97;2.40;;;;;;;-145.79;56.98;76429.91;5252523;28;20082;-74
2023/08/13 16:33:56;;;;;;;4.03;2.45;;;;;;;-145.79;57.13;76461.69;5261798;28;20392;-73
2023/08/13 16:36:31;;;;;;;4.38;2.15;;;;;;;-145.79;57.96;76461.69;5243496;28;20124;-73
2023/08/13 16:39:03;;;;;;;5.23;2.47;;;;;;;-145.79;58.19;76465.94;5248828;28;20025;-74
2023/08/13 16:41:34;;;;;;;3.95;2.03;;;;;;;-145.79;58.73;76461.69;5241079;28;20022;-75
2023/08/13 16:44:06;;;;;;;5.47;2.90;;;;;;;-145.79;58.28;76480.78;5248610;28;20404;-75
2023/08/13 16:46:40;;;;;;;6.78;2.35;;;;;;;-145.79;58.83;76474.41;5240922;28;20040;-74
2023/08/13 16:49:11;;;;;;;6.07;2.33;;;;;;;-145.79;58.98;76468.06;5239602;28;20425;-73
2023/08/13 16:51:43;;;;;;;7.35;3.80;;;;;;;-145.79;58.80;76448.97;5240805;28;20040;-74
